createdAt,value
2019-04-07T00:01:25.510Z,18.20
2019-04-07T00:06:28.347Z,15.70
2019-04-07T00:11:31.262Z,12.77
2019-04-07T00:16:34.111Z,15.03
2019-04-07T00:21:36.893Z,14.13
2019-04-07T00:26:39.716Z,15.47
2019-04-07T00:31:42.991Z,13.90
2019-04-07T00:36:46.964Z,19.63
2019-04-07T00:41:49.912Z,14.57
2019-04-07T00:46:52.771Z,15.27
2019-04-07T00:51:58.451Z,15.47
2019-04-07T00:57:01.955Z,18.87
2019-04-07T01:02:05.923Z,22.40
2019-04-07T01:07:09.115Z,13.43
2019-04-07T01:12:12.037Z,15.87
2019-04-07T01:17:15.029Z,17.90
2019-04-07T01:22:19.261Z,18.70
2019-04-07T01:27:22.219Z,19.13
2019-04-07T01:32:25.687Z,16.27
2019-04-07T01:37:29.055Z,22.47
2019-04-07T01:43:09.455Z,21.40
2019-04-07T01:48:43.678Z,16.63
2019-04-07T01:54:15.355Z,12.23
2019-04-07T01:59:43.493Z,20.20
2019-04-07T02:04:59.244Z,15.30
2019-04-07T02:10:44.458Z,16.67
2019-04-07T02:16:02.800Z,13.33
2019-04-07T02:21:09.658Z,17.67
2019-04-07T02:26:22.285Z,17.17
2019-04-07T02:31:45.082Z,17.33
2019-04-07T02:37:18.109Z,19.37
2019-04-07T02:42:30.612Z,17.27
2019-04-07T02:48:01.624Z,18.30
2019-04-07T02:53:37.878Z,23.10
2019-04-07T02:58:59.403Z,18.37
2019-04-07T03:04:17.869Z,17.67
2019-04-07T03:09:39.895Z,14.73
2019-04-07T03:14:53.151Z,21.63
2019-04-07T03:20:12.212Z,19.43
2019-04-07T03:25:33.088Z,14.70
2019-04-07T03:30:45.101Z,18.47
2019-04-07T03:36:02.686Z,16.83
2019-04-07T03:41:14.025Z,22.77
2019-04-07T03:46:32.660Z,17.30
2019-04-07T03:51:40.513Z,21.93
2019-04-07T04:02:54.814Z,18.57
2019-04-07T04:08:16.029Z,21.97
2019-04-07T04:13:30.693Z,21.10
2019-04-07T04:18:33.478Z,22.37
2019-04-07T04:23:36.283Z,19.53
2019-04-07T04:28:39.225Z,17.50
2019-04-07T04:33:42.144Z,20.07
2019-04-07T04:38:45.771Z,21.27
2019-04-07T04:43:49.163Z,20.77
2019-04-07T04:48:52.546Z,13.80
2019-04-07T04:53:56.310Z,33.80
2019-04-07T04:58:59.778Z,17.57
2019-04-07T05:04:02.506Z,15.40
2019-04-07T05:09:06.830Z,17.40
2019-04-07T05:14:09.554Z,17.23
2019-04-07T05:19:12.606Z,19.83
2019-04-07T05:24:15.823Z,20.50
2019-04-07T05:29:18.708Z,17.73
2019-04-07T05:34:22.438Z,19.07
2019-04-07T05:39:25.896Z,15.20
2019-04-07T05:44:28.911Z,15.00
2019-04-07T05:49:32.523Z,18.33
2019-04-07T05:54:35.245Z,14.27
2019-04-07T05:59:41.770Z,13.03
2019-04-07T06:04:42.722Z,18.13
2019-04-07T06:09:45.525Z,16.47
2019-04-07T06:14:48.359Z,14.67
2019-04-07T06:19:52.437Z,13.90
2019-04-07T06:24:56.007Z,10.20
2019-04-07T06:30:00.022Z,11.63
2019-04-07T06:35:03.869Z,11.00
2019-04-07T06:40:07.577Z,13.23
2019-04-07T06:45:11.908Z,13.23
2019-04-07T06:50:31.176Z,10.53
2019-04-07T06:56:08.951Z,12.43
2019-04-07T07:01:47.608Z,10.17
2019-04-07T07:07:12.236Z,8.80
2019-04-07T07:12:49.632Z,10.37
2019-04-07T07:23:39.543Z,7.77
2019-04-07T07:28:43.958Z,8.97
2019-04-07T07:33:47.401Z,8.27
2019-04-07T07:38:58.309Z,12.60
2019-04-07T07:44:00.204Z,9.63
2019-04-07T07:49:01.894Z,8.07
2019-04-07T07:54:04.673Z,6.47
2019-04-07T07:59:07.731Z,7.33
2019-04-07T08:04:10.723Z,8.00
2019-04-07T08:09:16.447Z,9.17
2019-04-07T08:14:18.585Z,9.70
2019-04-07T08:19:24.236Z,8.13
2019-04-07T08:24:26.171Z,7.97
2019-04-07T08:29:29.129Z,8.03
2019-04-07T08:34:32.979Z,8.37
2019-04-07T08:39:36.517Z,7.30
2019-04-07T08:44:40.769Z,8.10
2019-04-07T08:49:43.691Z,6.03
2019-04-07T08:54:50.381Z,11.10
2019-04-07T08:59:52.756Z,21.87
2019-04-07T09:04:55.865Z,6.60
2019-04-07T09:09:58.776Z,6.43
2019-04-07T09:15:03.964Z,7.83
2019-04-07T09:20:24.661Z,25.50
2019-04-07T09:25:43.600Z,10.33
2019-04-07T09:31:06.346Z,6.60
2019-04-07T09:36:35.254Z,8.60
2019-04-07T09:47:46.732Z,5.93
2019-04-07T09:53:22.989Z,6.17
2019-04-07T09:58:45.314Z,4.83
2019-04-07T10:04:08.178Z,4.33
2019-04-07T10:09:20.329Z,4.70
2019-04-07T10:14:35.019Z,4.47
2019-04-07T10:19:57.317Z,4.87
2019-04-07T10:25:18.118Z,7.37
2019-04-07T10:30:41.508Z,11.37
2019-04-07T10:36:05.956Z,5.17
2019-04-07T10:41:44.096Z,5.53
2019-04-07T10:47:09.547Z,3.07
2019-04-07T10:52:21.409Z,3.83
2019-04-07T10:57:32.271Z,3.03
2019-04-07T11:02:55.420Z,5.23
2019-04-07T11:08:20.975Z,4.40
2019-04-07T11:13:38.762Z,4.37
2019-04-07T11:18:58.462Z,4.10
2019-04-07T11:24:08.977Z,3.20
2019-04-07T11:29:20.940Z,5.37
2019-04-07T11:34:52.991Z,2.67
2019-04-07T11:40:06.278Z,4.63
2019-04-07T11:45:18.352Z,2.90
2019-04-07T11:50:32.789Z,4.03
2019-04-07T11:55:46.570Z,2.98
2019-04-07T12:01:12.787Z,2.40
2019-04-07T12:06:29.978Z,4.55
2019-04-07T12:17:15.153Z,2.67
2019-04-07T12:22:37.946Z,3.02
2019-04-07T12:28:19.435Z,8.88
2019-04-07T12:33:48.682Z,3.77
2019-04-07T12:39:10.412Z,2.70
2019-04-07T12:44:22.241Z,1.65
2019-04-07T12:49:44.951Z,3.30
2019-04-07T12:55:08.008Z,2.25
2019-04-07T13:00:30.837Z,2.00
2019-04-07T13:06:06.340Z,3.52
2019-04-07T13:11:26.455Z,2.15
2019-04-07T13:16:45.986Z,1.92
2019-04-07T13:22:07.901Z,2.47
2019-04-07T13:27:39.115Z,3.58
2019-04-07T13:33:14.010Z,2.52
2019-04-07T13:38:39.042Z,1.32
2019-04-07T13:43:51.652Z,1.15
2019-04-07T13:49:27.849Z,1.57
2019-04-07T13:54:49.330Z,3.83
2019-04-07T14:00:15.941Z,1.12
2019-04-07T14:05:50.674Z,3.62
2019-04-07T14:11:12.192Z,2.10
2019-04-07T14:16:33.425Z,1.57
2019-04-07T14:21:53.392Z,1.20
2019-04-07T14:27:07.546Z,1.45
2019-04-07T14:32:54.627Z,1.67
2019-04-07T14:38:16.893Z,1.60
2019-04-07T14:49:24.138Z,2.00
2019-04-07T14:54:46.459Z,1.50
2019-04-07T15:00:25.511Z,3.67
2019-04-07T15:05:32.662Z,9.05
2019-04-07T15:10:41.980Z,1.57
2019-04-07T15:15:44.754Z,1.50
2019-04-07T15:20:48.436Z,1.30
2019-04-07T15:25:51.638Z,1.20
2019-04-07T15:30:55.614Z,3.33
2019-04-07T15:36:04.352Z,3.47
2019-04-07T15:41:13.830Z,1.37
2019-04-07T15:46:17.353Z,1.62
2019-04-07T15:51:17.655Z,1.40
2019-04-07T15:56:20.920Z,1.90
2019-04-07T16:01:24.906Z,2.67
2019-04-07T16:06:27.994Z,1.57
2019-04-07T16:11:30.774Z,2.70
2019-04-07T16:16:33.539Z,1.95
2019-04-07T16:21:39.278Z,2.35
2019-04-07T16:26:41.028Z,2.10
2019-04-07T16:31:43.827Z,1.67
2019-04-07T16:36:47.605Z,3.00
2019-04-07T16:41:50.368Z,4.00
2019-04-07T16:46:56.602Z,2.65
2019-04-07T16:51:59.983Z,9.83
2019-04-07T16:57:03.225Z,2.17
2019-04-07T17:03:10.345Z,2.30
2019-04-07T17:08:31.864Z,1.70
2019-04-07T17:13:46.045Z,1.75
2019-04-07T17:19:04.105Z,1.85
2019-04-07T17:24:07.651Z,2.07
2019-04-07T17:29:10.917Z,5.90
2019-04-07T17:34:14.487Z,1.93
2019-04-07T17:39:46.761Z,1.73
2019-04-07T17:45:09.663Z,1.67
2019-04-07T17:50:44.279Z,3.90
2019-04-07T17:56:03.669Z,6.00
2019-04-07T18:01:24.997Z,1.97
2019-04-07T18:06:44.589Z,1.77
2019-04-07T18:12:02.301Z,2.03
2019-04-07T18:17:13.407Z,2.67
2019-04-07T18:22:53.923Z,1.93
2019-04-07T18:28:16.410Z,5.17
2019-04-07T18:33:43.799Z,2.77
2019-04-07T18:39:04.711Z,2.53
2019-04-07T18:44:32.648Z,2.13
2019-04-07T18:49:58.112Z,4.17
2019-04-07T18:55:36.838Z,4.60
2019-04-07T19:00:48.270Z,3.57
2019-04-07T19:06:09.447Z,2.33
2019-04-07T19:11:29.775Z,1.77
2019-04-07T19:17:00.910Z,2.17
2019-04-07T19:22:22.675Z,2.43
2019-04-07T19:33:14.980Z,9.83
2019-04-07T19:38:47.487Z,5.03
2019-04-07T19:43:55.313Z,1.93
2019-04-07T19:49:21.517Z,2.20
2019-04-07T19:54:51.627Z,2.00
2019-04-07T20:00:24.286Z,2.23
2019-04-07T20:11:35.757Z,9.63
2019-04-07T20:16:53.766Z,8.13
2019-04-07T20:22:02.646Z,3.40
2019-04-07T20:27:27.208Z,2.07
2019-04-07T20:32:33.824Z,2.57
2019-04-07T20:38:05.022Z,2.77
2019-04-07T20:43:37.207Z,2.40
2019-04-07T20:48:58.127Z,2.63
2019-04-07T20:54:23.715Z,2.20
2019-04-07T20:59:52.850Z,3.77
2019-04-07T21:05:16.693Z,2.10
2019-04-07T21:10:37.889Z,5.33
2019-04-07T21:16:15.546Z,1.90
2019-04-07T21:21:41.658Z,2.53
2019-04-07T21:27:14.315Z,2.47
2019-04-07T21:32:24.887Z,2.90
2019-04-07T21:37:40.934Z,2.30
2019-04-07T21:43:14.150Z,2.20
2019-04-07T21:48:51.739Z,2.90
2019-04-07T21:54:09.783Z,2.60
2019-04-07T21:59:39.616Z,2.47
2019-04-07T22:05:02.906Z,2.67
2019-04-07T22:10:07.424Z,2.67
2019-04-07T22:15:13.478Z,3.40
2019-04-07T22:20:18.748Z,3.00
2019-04-07T22:25:29.063Z,3.37
2019-04-07T22:30:33.962Z,3.07
2019-04-07T22:35:38.313Z,2.83
2019-04-07T22:40:41.622Z,2.43
2019-04-07T22:45:56.706Z,2.27
2019-04-07T22:50:49.654Z,2.63
2019-04-07T22:55:52.719Z,2.73
2019-04-07T23:00:55.492Z,6.07
2019-04-07T23:05:59.228Z,5.73
2019-04-07T23:11:02.495Z,3.77
2019-04-07T23:16:10.844Z,2.77
2019-04-07T23:21:09.803Z,3.30
2019-04-07T23:26:12.592Z,2.83
2019-04-07T23:31:15.882Z,2.30
2019-04-07T23:36:18.714Z,2.60
2019-04-07T23:41:22.181Z,3.90
2019-04-07T23:46:27.160Z,3.10
2019-04-07T23:51:31.568Z,5.33
2019-04-07T23:56:35.526Z,2.73
